sensor_id;sensor_type;location;lat;lon;timestamp;pressure;altitude;pressure_sealevel;temperature;humidity
21276;BME280;36472;52.170;20.884;2023-01-28T00:00:11;101221.50;;;1.67;93.00
21276;BME280;36472;52.170;20.884;2023-01-28T00:03:00;101227.50;;;1.68;93.29
21276;BME280;36472;52.170;20.884;2023-01-28T00:05:33;101224.94;;;1.66;93.67
21276;BME280;36472;52.170;20.884;2023-01-28T00:08:02;101223.19;;;1.67;93.96
21276;BME280;36472;52.170;20.884;2023-01-28T00:10:32;101230.13;;;1.66;93.90
21276;BME280;36472;52.170;20.884;2023-01-28T00:13:01;101236.13;;;1.68;93.84
21276;BME280;36472;52.170;20.884;2023-01-28T00:15:30;101239.66;;;1.66;93.74
21276;BME280;36472;52.170;20.884;2023-01-28T00:17:59;101241.28;;;1.72;94.33
21276;BME280;36472;52.170;20.884;2023-01-28T00:20:28;101238.63;;;1.76;94.33
21276;BME280;36472;52.170;20.884;2023-01-28T00:22:57;101234.34;;;1.74;93.80
21276;BME280;36472;52.170;20.884;2023-01-28T00:25:26;101235.09;;;1.80;93.93
21276;BME280;36472;52.170;20.884;2023-01-28T00:27:57;101228.19;;;1.79;93.52
21276;BME280;36472;52.170;20.884;2023-01-28T00:30:26;101235.94;;;1.81;93.46
21276;BME280;36472;52.170;20.884;2023-01-28T00:32:55;101230.84;;;1.78;94.03
21276;BME280;36472;52.170;20.884;2023-01-28T00:35:24;101233.38;;;1.79;93.95
21276;BME280;36472;52.170;20.884;2023-01-28T00:37:53;101241.06;;;1.85;93.20
21276;BME280;36472;52.170;20.884;2023-01-28T00:40:22;101241.03;;;1.89;93.12
21276;BME280;36472;52.170;20.884;2023-01-28T00:42:51;101237.66;;;1.83;93.09
21276;BME280;36472;52.170;20.884;2023-01-28T00:45:22;101232.41;;;1.88;93.43
21276;BME280;36472;52.170;20.884;2023-01-28T00:47:51;101229.88;;;1.83;93.01
21276;BME280;36472;52.170;20.884;2023-01-28T00:50:20;101240.28;;;1.80;93.07
21276;BME280;36472;52.170;20.884;2023-01-28T00:52:49;101242.00;;;1.81;93.11
21276;BME280;36472;52.170;20.884;2023-01-28T00:55:18;101233.44;;;1.78;92.88
21276;BME280;36472;52.170;20.884;2023-01-28T00:57:48;101235.13;;;1.77;93.02
21276;BME280;36472;52.170;20.884;2023-01-28T01:00:18;101230.75;;;1.81;92.94
21276;BME280;36472;52.170;20.884;2023-01-28T01:02:50;101232.53;;;1.79;93.09
21276;BME280;36472;52.170;20.884;2023-01-28T01:05:19;101227.16;;;1.90;92.69
21276;BME280;36472;52.170;20.884;2023-01-28T01:07:48;101234.94;;;1.90;92.64
21276;BME280;36472;52.170;20.884;2023-01-28T01:10:19;101233.19;;;1.92;92.67
21276;BME280;36472;52.170;20.884;2023-01-28T01:12:48;101234.84;;;1.97;93.21
21276;BME280;36472;52.170;20.884;2023-01-28T01:15:19;101233.94;;;2.00;92.77
21276;BME280;36472;52.170;20.884;2023-01-28T01:17:51;101232.25;;;1.97;92.58
21276;BME280;36472;52.170;20.884;2023-01-28T01:20:23;101233.03;;;2.01;92.84
21276;BME280;36472;52.170;20.884;2023-01-28T01:22:53;101229.66;;;1.96;92.31
21276;BME280;36472;52.170;20.884;2023-01-28T01:25:22;101233.13;;;1.95;92.79
21276;BME280;36472;52.170;20.884;2023-01-28T01:27:51;101226.25;;;1.94;92.65
21276;BME280;36472;52.170;20.884;2023-01-28T01:30:20;101231.41;;;1.97;92.77
21276;BME280;36472;52.170;20.884;2023-01-28T01:32:50;101228.81;;;1.95;92.81
21276;BME280;36472;52.170;20.884;2023-01-28T01:35:19;101225.16;;;2.07;92.72
21276;BME280;36472;52.170;20.884;2023-01-28T01:37:48;101224.22;;;2.11;92.23
21276;BME280;36472;52.170;20.884;2023-01-28T01:40:17;101220.94;;;2.01;92.10
21276;BME280;36472;52.170;20.884;2023-01-28T01:42:46;101221.88;;;1.97;92.12
21276;BME280;36472;52.170;20.884;2023-01-28T01:45:15;101230.53;;;1.95;92.12
21276;BME280;36472;52.170;20.884;2023-01-28T01:47:52;101226.22;;;1.95;92.67
21276;BME280;36472;52.170;20.884;2023-01-28T01:50:30;101231.41;;;1.97;92.18
21276;BME280;36472;52.170;20.884;2023-01-28T01:53:05;101234.00;;;1.95;92.50
21276;BME280;36472;52.170;20.884;2023-01-28T01:55:40;101226.88;;;2.06;92.25
21276;BME280;36472;52.170;20.884;2023-01-28T01:58:15;101221.75;;;2.05;92.30
21276;BME280;36472;52.170;20.884;2023-01-28T02:00:47;101228.75;;;2.00;91.92
21276;BME280;36472;52.170;20.884;2023-01-28T02:03:24;101225.41;;;1.93;92.61
21276;BME280;36472;52.170;20.884;2023-01-28T02:05:56;101228.81;;;1.97;92.24
21276;BME280;36472;52.170;20.884;2023-01-28T02:08:25;101237.47;;;1.94;92.23
21276;BME280;36472;52.170;20.884;2023-01-28T02:10:59;101226.97;;;2.03;92.17
21276;BME280;36472;52.170;20.884;2023-01-28T02:13:35;101233.03;;;2.01;92.02
21276;BME280;36472;52.170;20.884;2023-01-28T02:16:07;101226.84;;;2.10;91.81
21276;BME280;36472;52.170;20.884;2023-01-28T02:18:39;101238.22;;;2.01;92.13
21276;BME280;36472;52.170;20.884;2023-01-28T02:21:42;101237.22;;;2.10;92.35
21276;BME280;36472;52.170;20.884;2023-01-28T02:24:55;101236.47;;;2.03;92.60
21276;BME280;36472;52.170;20.884;2023-01-28T02:27:36;101234.66;;;2.08;92.64
21276;BME280;36472;52.170;20.884;2023-01-28T02:30:18;101233.84;;;2.04;92.26
21276;BME280;36472;52.170;20.884;2023-01-28T02:32:55;101227.84;;;2.02;92.25
21276;BME280;36472;52.170;20.884;2023-01-28T02:35:34;101233.00;;;2.04;92.17
21276;BME280;36472;52.170;20.884;2023-01-28T02:38:10;101233.78;;;2.09;91.75
21276;BME280;36472;52.170;20.884;2023-01-28T02:40:45;101233.00;;;2.04;91.83
21276;BME280;36472;52.170;20.884;2023-01-28T02:43:36;101234.84;;;1.97;92.39
21276;BME280;36472;52.170;20.884;2023-01-28T02:46:20;101235.53;;;2.07;91.56
21276;BME280;36472;52.170;20.884;2023-01-28T02:49:11;101239.06;;;2.01;92.02
21276;BME280;36472;52.170;20.884;2023-01-28T02:52:02;101234.91;;;1.91;92.53
21276;BME280;36472;52.170;20.884;2023-01-28T02:54:48;101233.97;;;1.97;92.37
21276;BME280;36472;52.170;20.884;2023-01-28T02:57:32;101236.63;;;1.94;92.32
21276;BME280;36472;52.170;20.884;2023-01-28T03:00:14;101242.59;;;1.99;92.66
21276;BME280;36472;52.170;20.884;2023-01-28T03:02:52;101245.13;;;2.03;92.00
21276;BME280;36472;52.170;20.884;2023-01-28T03:05:32;101238.22;;;2.01;92.34
21276;BME280;36472;52.170;20.884;2023-01-28T03:08:06;101243.41;;;2.01;92.01
21276;BME280;36472;52.170;20.884;2023-01-28T03:10:51;101244.31;;;2.00;92.37
21276;BME280;36472;52.170;20.884;2023-01-28T03:13:39;101239.94;;;2.03;92.85
21276;BME280;36472;52.170;20.884;2023-01-28T03:16:28;101237.53;;;1.90;93.68
21276;BME280;36472;52.170;20.884;2023-01-28T03:19:17;101240.88;;;1.98;94.00
21276;BME280;36472;52.170;20.884;2023-01-28T03:22:04;101243.47;;;1.98;93.40
21276;BME280;36472;52.170;20.884;2023-01-28T03:24:52;101243.47;;;1.98;93.83
21276;BME280;36472;52.170;20.884;2023-01-28T03:27:47;101233.97;;;1.97;94.00
21276;BME280;36472;52.170;20.884;2023-01-28T03:30:46;101243.50;;;1.95;94.42
21276;BME280;36472;52.170;20.884;2023-01-28T03:33:44;101241.00;;;1.90;94.94
21276;BME280;36472;52.170;20.884;2023-01-28T03:36:32;101242.59;;;1.97;94.71
21276;BME280;36472;52.170;20.884;2023-01-28T03:39:36;101240.19;;;1.86;94.60
21276;BME280;36472;52.170;20.884;2023-01-28T03:42:12;101237.59;;;1.86;94.94
21276;BME280;36472;52.170;20.884;2023-01-28T03:44:51;101235.94;;;1.82;95.15
21276;BME280;36472;52.170;20.884;2023-01-28T03:47:23;101239.31;;;1.86;94.99
21276;BME280;36472;52.170;20.884;2023-01-28T03:49:55;101242.03;;;1.80;95.53
21276;BME280;36472;52.170;20.884;2023-01-28T03:52:31;101237.66;;;1.83;95.79
21276;BME280;36472;52.170;20.884;2023-01-28T03:55:16;101248.03;;;1.82;96.07
21276;BME280;36472;52.170;20.884;2023-01-28T03:57:47;101243.88;;;1.72;95.80
21276;BME280;36472;52.170;20.884;2023-01-28T04:00:17;101236.06;;;1.75;96.01
21276;BME280;36472;52.170;20.884;2023-01-28T04:02:47;101239.50;;;1.75;96.47
21276;BME280;36472;52.170;20.884;2023-01-28T04:05:19;101237.84;;;1.71;96.30
21276;BME280;36472;52.170;20.884;2023-01-28T04:07:53;101235.09;;;1.80;96.37
21276;BME280;36472;52.170;20.884;2023-01-28T04:10:52;101232.81;;;1.59;96.78
21276;BME280;36472;52.170;20.884;2023-01-28T04:13:28;101246.38;;;1.78;96.29
21276;BME280;36472;52.170;20.884;2023-01-28T04:15:57;101236.91;;;1.75;96.36
21276;BME280;36472;52.170;20.884;2023-01-28T04:18:34;101234.34;;;1.72;96.89
21276;BME280;36472;52.170;20.884;2023-01-28T04:21:04;101237.72;;;1.77;95.84
21276;BME280;36472;52.170;20.884;2023-01-28T04:23:36;101237.72;;;1.79;95.80
21276;BME280;36472;52.170;20.884;2023-01-28T04:26:06;101232.78;;;1.62;96.71
21276;BME280;36472;52.170;20.884;2023-01-28T04:28:36;101234.50;;;1.63;96.56
21276;BME280;36472;52.170;20.884;2023-01-28T04:31:05;101242.25;;;1.66;96.86
21276;BME280;36472;52.170;20.884;2023-01-28T04:33:55;101236.97;;;1.69;96.81
21276;BME280;36472;52.170;20.884;2023-01-28T04:36:34;101241.34;;;1.67;96.45
21276;BME280;36472;52.170;20.884;2023-01-28T04:39:23;101242.28;;;1.63;96.93
21276;BME280;36472;52.170;20.884;2023-01-28T04:42:13;101236.19;;;1.64;97.02
21276;BME280;36472;52.170;20.884;2023-01-28T04:45:04;101245.84;;;1.56;97.41
21276;BME280;36472;52.170;20.884;2023-01-28T04:47:53;101245.63;;;1.70;97.46
21276;BME280;36472;52.170;20.884;2023-01-28T04:50:46;101245.69;;;1.65;96.24
21276;BME280;36472;52.170;20.884;2023-01-28T04:53:40;101247.34;;;1.69;96.37
21276;BME280;36472;52.170;20.884;2023-01-28T04:56:29;101241.25;;;1.73;95.88
21276;BME280;36472;52.170;20.884;2023-01-28T04:58:59;101248.97;;;1.78;95.67
21276;BME280;36472;52.170;20.884;2023-01-28T05:01:31;101244.66;;;1.77;95.51
21276;BME280;36472;52.170;20.884;2023-01-28T05:04:01;101249.13;;;1.65;96.11
21276;BME280;36472;52.170;20.884;2023-01-28T05:06:36;101246.44;;;1.75;95.79
21276;BME280;36472;52.170;20.884;2023-01-28T05:09:13;101250.81;;;1.71;96.05
21276;BME280;36472;52.170;20.884;2023-01-28T05:11:44;101248.94;;;1.79;95.94
21276;BME280;36472;52.170;20.884;2023-01-28T05:14:14;101249.88;;;1.75;95.49
21276;BME280;36472;52.170;20.884;2023-01-28T05:16:53;101249.00;;;1.76;95.53
21276;BME280;36472;52.170;20.884;2023-01-28T05:19:22;101256.06;;;1.65;95.70
21276;BME280;36472;52.170;20.884;2023-01-28T05:21:51;101254.19;;;1.76;95.48
21276;BME280;36472;52.170;20.884;2023-01-28T05:24:30;101261.00;;;1.82;94.60
21276;BME280;36472;52.170;20.884;2023-01-28T05:27:01;101260.97;;;1.83;94.73
21276;BME280;36472;52.170;20.884;2023-01-28T05:29:30;101262.63;;;1.87;94.38
21276;BME280;36472;52.170;20.884;2023-01-28T05:31:59;101261.81;;;1.84;94.72
21276;BME280;36472;52.170;20.884;2023-01-28T05:34:30;101264.47;;;1.79;94.44
21276;BME280;36472;52.170;20.884;2023-01-28T05:37:06;101255.84;;;1.80;94.88
21276;BME280;36472;52.170;20.884;2023-01-28T05:39:37;101253.22;;;1.82;94.64
21276;BME280;36472;52.170;20.884;2023-01-28T05:42:07;101264.41;;;1.85;94.70
21276;BME280;36472;52.170;20.884;2023-01-28T05:44:42;101266.28;;;1.74;94.19
21276;BME280;36472;52.170;20.884;2023-01-28T05:47:30;101261.94;;;1.78;94.13
21276;BME280;36472;52.170;20.884;2023-01-28T05:50:14;101270.81;;;1.61;94.50
21276;BME280;36472;52.170;20.884;2023-01-28T05:53:05;101271.66;;;1.62;94.93
21276;BME280;36472;52.170;20.884;2023-01-28T05:55:35;101269.78;;;1.72;94.94
21276;BME280;36472;52.170;20.884;2023-01-28T05:58:06;101269.78;;;1.73;94.61
21276;BME280;36472;52.170;20.884;2023-01-28T06:00:36;101269.72;;;1.76;94.85
21276;BME280;36472;52.170;20.884;2023-01-28T06:03:05;101272.31;;;1.76;94.79
21276;BME280;36472;52.170;20.884;2023-01-28T06:05:36;101266.25;;;1.77;94.64
21276;BME280;36472;52.170;20.884;2023-01-28T06:08:07;101269.59;;;1.84;94.34
21276;BME280;36472;52.170;20.884;2023-01-28T06:10:37;101270.63;;;1.72;94.62
21276;BME280;36472;52.170;20.884;2023-01-28T06:13:07;101277.63;;;1.67;95.13
21276;BME280;36472;52.170;20.884;2023-01-28T06:15:36;101281.03;;;1.71;95.32
21276;BME280;36472;52.170;20.884;2023-01-28T06:18:17;101284.53;;;1.66;95.24
21276;BME280;36472;52.170;20.884;2023-01-28T06:20:48;101285.50;;;1.61;95.09
21276;BME280;36472;52.170;20.884;2023-01-28T06:23:18;101285.53;;;1.59;95.38
21276;BME280;36472;52.170;20.884;2023-01-28T06:25:47;101278.53;;;1.64;95.17
21276;BME280;36472;52.170;20.884;2023-01-28T06:28:17;101283.78;;;1.60;95.18
21276;BME280;36472;52.170;20.884;2023-01-28T06:30:47;101280.22;;;1.67;95.04
21276;BME280;36472;52.170;20.884;2023-01-28T06:33:17;101294.06;;;1.66;95.54
21276;BME280;36472;52.170;20.884;2023-01-28T06:35:46;101294.94;;;1.63;95.98
21276;BME280;36472;52.170;20.884;2023-01-28T06:38:15;101289.13;;;1.49;96.05
21276;BME280;36472;52.170;20.884;2023-01-28T06:40:50;101298.38;;;1.64;95.72
21276;BME280;36472;52.170;20.884;2023-01-28T06:43:20;101295.00;;;1.60;95.45
21276;BME280;36472;52.170;20.884;2023-01-28T06:45:54;101294.06;;;1.67;95.68
21276;BME280;36472;52.170;20.884;2023-01-28T06:48:24;101283.69;;;1.66;95.46
21276;BME280;36472;52.170;20.884;2023-01-28T06:50:53;101302.66;;;1.68;95.59
21276;BME280;36472;52.170;20.884;2023-01-28T06:53:22;101300.06;;;1.70;95.93
21276;BME280;36472;52.170;20.884;2023-01-28T06:55:51;101301.78;;;1.69;96.01
21276;BME280;36472;52.170;20.884;2023-01-28T06:58:22;101305.16;;;1.74;96.34
21276;BME280;36472;52.170;20.884;2023-01-28T07:00:52;101310.31;;;1.77;96.21
21276;BME280;36472;52.170;20.884;2023-01-28T07:03:22;101315.66;;;1.66;96.50
21276;BME280;36472;52.170;20.884;2023-01-28T07:05:51;101316.47;;;1.70;96.47
21276;BME280;36472;52.170;20.884;2023-01-28T07:08:20;101310.47;;;1.66;97.08
21276;BME280;36472;52.170;20.884;2023-01-28T07:10:49;101319.81;;;1.77;97.24
21276;BME280;36472;52.170;20.884;2023-01-28T07:13:18;101326.78;;;1.73;96.59
21276;BME280;36472;52.170;20.884;2023-01-28T07:15:48;101320.91;;;1.60;97.76
21276;BME280;36472;52.170;20.884;2023-01-28T07:18:17;101326.78;;;1.73;97.35
21276;BME280;36472;52.170;20.884;2023-01-28T07:20:46;101325.06;;;1.71;97.42
21276;BME280;36472;52.170;20.884;2023-01-28T07:23:16;101318.25;;;1.65;97.87
21276;BME280;36472;52.170;20.884;2023-01-28T07:25:44;101308.75;;;1.65;97.80
21276;BME280;36472;52.170;20.884;2023-01-28T07:28:14;101319.25;;;1.56;98.55
21276;BME280;36472;52.170;20.884;2023-01-28T07:30:50;101316.63;;;1.59;99.18
21276;BME280;36472;52.170;20.884;2023-01-28T07:33:20;101319.97;;;1.67;98.73
21276;BME280;36472;52.170;20.884;2023-01-28T07:35:49;101323.41;;;1.66;98.74
21276;BME280;36472;52.170;20.884;2023-01-28T07:38:18;101325.28;;;1.57;99.19
21276;BME280;36472;52.170;20.884;2023-01-28T07:40:47;101325.25;;;1.60;99.01
21276;BME280;36472;52.170;20.884;2023-01-28T07:43:17;101327.06;;;1.52;99.90
21276;BME280;36472;52.170;20.884;2023-01-28T07:45:49;101326.28;;;1.43;100.00
21276;BME280;36472;52.170;20.884;2023-01-28T07:48:18;101333.31;;;1.37;100.00
21276;BME280;36472;52.170;20.884;2023-01-28T07:50:47;101331.59;;;1.36;100.00
21276;BME280;36472;52.170;20.884;2023-01-28T07:53:18;101326.44;;;1.33;100.00
21276;BME280;36472;52.170;20.884;2023-01-28T07:55:47;101332.44;;;1.36;100.00
21276;BME280;36472;52.170;20.884;2023-01-28T07:58:16;101334.19;;;1.36;100.00
21276;BME280;36472;52.170;20.884;2023-01-28T08:00:45;101325.56;;;1.35;100.00
21276;BME280;36472;52.170;20.884;2023-01-28T08:03:16;101328.94;;;1.42;100.00
21276;BME280;36472;52.170;20.884;2023-01-28T08:05:46;101330.75;;;1.34;100.00
21276;BME280;36472;52.170;20.884;2023-01-28T08:08:16;101325.44;;;1.44;100.00
21276;BME280;36472;52.170;20.884;2023-01-28T08:10:45;101328.84;;;1.46;100.00
21276;BME280;36472;52.170;20.884;2023-01-28T08:13:16;101327.22;;;1.39;100.00
21276;BME280;36472;52.170;20.884;2023-01-28T08:15:46;101330.66;;;1.40;100.00
21276;BME280;36472;52.170;20.884;2023-01-28T08:18:17;101331.53;;;1.42;100.00
21276;BME280;36472;52.170;20.884;2023-01-28T08:20:46;101331.53;;;1.42;100.00
21276;BME280;36472;52.170;20.884;2023-01-28T08:23:17;101327.22;;;1.39;100.00
21276;BME280;36472;52.170;20.884;2023-01-28T08:25:48;101334.94;;;1.44;100.00
21276;BME280;36472;52.170;20.884;2023-01-28T08:28:19;101323.03;;;1.30;100.00
21276;BME280;36472;52.170;20.884;2023-01-28T08:30:48;101329.69;;;1.48;100.00
21276;BME280;36472;52.170;20.884;2023-01-28T08:33:19;101333.38;;;1.29;100.00
21276;BME280;36472;52.170;20.884;2023-01-28T08:35:48;101330.75;;;1.35;100.00
21276;BME280;36472;52.170;20.884;2023-01-28T08:38:18;101329.06;;;1.28;100.00
21276;BME280;36472;52.170;20.884;2023-01-28T08:40:46;101329.00;;;1.36;100.00
21276;BME280;36472;52.170;20.884;2023-01-28T08:43:17;101325.44;;;1.43;100.00
21276;BME280;36472;52.170;20.884;2023-01-28T08:45:46;101327.91;;;1.54;100.00
21276;BME280;36472;52.170;20.884;2023-01-28T08:48:19;101330.47;;;1.55;100.00
21276;BME280;36472;52.170;20.884;2023-01-28T08:50:48;101333.94;;;1.56;100.00
21276;BME280;36472;52.170;20.884;2023-01-28T08:53:19;101332.28;;;1.48;99.98
21276;BME280;36472;52.170;20.884;2023-01-28T08:55:48;101324.41;;;1.56;100.00
21276;BME280;36472;52.170;20.884;2023-01-28T08:58:17;101334.00;;;1.49;100.00
21276;BME280;36472;52.170;20.884;2023-01-28T09:00:47;101334.75;;;1.59;100.00
21276;BME280;36472;52.170;20.884;2023-01-28T09:03:18;101346.13;;;1.47;100.00
21276;BME280;36472;52.170;20.884;2023-01-28T09:05:47;101342.63;;;1.48;100.00
21276;BME280;36472;52.170;20.884;2023-01-28T09:08:17;101344.38;;;1.49;100.00
21276;BME280;36472;52.170;20.884;2023-01-28T09:10:46;101344.47;;;1.42;100.00
21276;BME280;36472;52.170;20.884;2023-01-28T09:13:15;101348.78;;;1.40;100.00
21276;BME280;36472;52.170;20.884;2023-01-28T09:15:44;101356.38;;;1.57;99.71
21276;BME280;36472;52.170;20.884;2023-01-28T09:18:13;101353.94;;;1.44;99.57
21276;BME280;36472;52.170;20.884;2023-01-28T09:20:44;101358.34;;;1.36;100.00
21276;BME280;36472;52.170;20.884;2023-01-28T09:23:13;101361.63;;;1.52;100.00
21276;BME280;36472;52.170;20.884;2023-01-28T09:25:42;101362.38;;;1.59;99.39
21276;BME280;36472;52.170;20.884;2023-01-28T09:28:12;101361.38;;;1.71;99.43
21276;BME280;36472;52.170;20.884;2023-01-28T09:30:40;101355.56;;;1.52;99.48
21276;BME280;36472;52.170;20.884;2023-01-28T09:33:10;101364.16;;;1.55;99.70
21276;BME280;36472;52.170;20.884;2023-01-28T09:35:38;101364.91;;;1.65;99.61
21276;BME280;36472;52.170;20.884;2023-01-28T09:38:09;101362.28;;;1.68;99.71
21276;BME280;36472;52.170;20.884;2023-01-28T09:40:42;101372.72;;;1.60;99.87
21276;BME280;36472;52.170;20.884;2023-01-28T09:43:45;101363.16;;;1.65;100.00
21276;BME280;36472;52.170;20.884;2023-01-28T09:46:21;101358.00;;;1.64;99.89
21276;BME280;36472;52.170;20.884;2023-01-28T09:48:57;101359.72;;;1.65;100.00
21276;BME280;36472;52.170;20.884;2023-01-28T09:51:33;101360.66;;;1.61;100.00
21276;BME280;36472;52.170;20.884;2023-01-28T09:54:23;101360.66;;;1.59;100.00
21276;BME280;36472;52.170;20.884;2023-01-28T09:57:00;101355.53;;;1.55;100.00
21276;BME280;36472;52.170;20.884;2023-01-28T09:59:34;101365.09;;;1.49;100.00
21276;BME280;36472;52.170;20.884;2023-01-28T10:02:35;101360.72;;;1.55;100.00
21276;BME280;36472;52.170;20.884;2023-01-28T10:05:19;101350.41;;;1.50;100.00
21276;BME280;36472;52.170;20.884;2023-01-28T10:08:04;101350.38;;;1.52;100.00
21276;BME280;36472;52.170;20.884;2023-01-28T10:10:43;101348.72;;;1.47;100.00
21276;BME280;36472;52.170;20.884;2023-01-28T10:13:30;101347.13;;;1.36;100.00
21276;BME280;36472;52.170;20.884;2023-01-28T10:16:19;101348.66;;;1.52;100.00
21276;BME280;36472;52.170;20.884;2023-01-28T10:18:57;101342.59;;;1.52;100.00
21276;BME280;36472;52.170;20.884;2023-01-28T10:21:35;101342.63;;;1.48;100.00
21276;BME280;36472;52.170;20.884;2023-01-28T10:24:14;101338.41;;;1.41;100.00
21276;BME280;36472;52.170;20.884;2023-01-28T10:26:46;101344.34;;;1.53;100.00
21276;BME280;36472;52.170;20.884;2023-01-28T10:29:19;101343.41;;;1.57;100.00
21276;BME280;36472;52.170;20.884;2023-01-28T10:31:53;101336.59;;;1.51;100.00
21276;BME280;36472;52.170;20.884;2023-01-28T10:49:45;101328.19;;;1.96;100.00
21276;BME280;36472;52.170;20.884;2023-01-28T10:52:16;101334.34;;;1.89;100.00
21276;BME280;36472;52.170;20.884;2023-01-28T10:54:45;101333.38;;;1.96;100.00
21276;BME280;36472;52.170;20.884;2023-01-28T10:57:17;101329.81;;;2.03;100.00
21276;BME280;36472;52.170;20.884;2023-01-28T10:59:47;101323.16;;;1.86;99.54
21276;BME280;36472;52.170;20.884;2023-01-28T11:02:28;101334.31;;;1.92;99.49
21276;BME280;36472;52.170;20.884;2023-01-28T11:05:14;101332.88;;;1.69;99.69
21276;BME280;36472;52.170;20.884;2023-01-28T11:07:44;101332.78;;;1.77;100.00
21276;BME280;36472;52.170;20.884;2023-01-28T11:10:28;101330.00;;;1.91;98.92
21276;BME280;36472;52.170;20.884;2023-01-28T11:13:01;101321.59;;;1.73;98.39
21276;BME280;36472;52.170;20.884;2023-01-28T11:15:31;101327.47;;;1.84;99.71
21276;BME280;36472;52.170;20.884;2023-01-28T11:18:04;101323.81;;;1.99;99.32
21276;BME280;36472;52.170;20.884;2023-01-28T11:20:41;101317.06;;;1.87;99.49
21276;BME280;36472;52.170;20.884;2023-01-28T11:23:21;101317.22;;;1.77;99.47
21276;BME280;36472;52.170;20.884;2023-01-28T11:26:02;101306.22;;;1.61;99.63
21276;BME280;36472;52.170;20.884;2023-01-28T11:28:34;101312.34;;;1.54;99.83
21276;BME280;36472;52.170;20.884;2023-01-28T11:31:03;101311.31;;;1.67;100.00
21276;BME280;36472;52.170;20.884;2023-01-28T11:33:37;101319.13;;;1.64;99.32
21276;BME280;36472;52.170;20.884;2023-01-28T11:36:14;101312.41;;;1.52;99.11
21276;BME280;36472;52.170;20.884;2023-01-28T11:38:52;101312.22;;;1.64;98.85
21276;BME280;36472;52.170;20.884;2023-01-28T11:41:29;101300.09;;;1.66;99.28
21276;BME280;36472;52.170;20.884;2023-01-28T11:44:04;101297.50;;;1.66;98.97
21276;BME280;36472;52.170;20.884;2023-01-28T11:47:06;101303.56;;;1.65;99.80
21276;BME280;36472;52.170;20.884;2023-01-28T11:50:00;101300.88;;;1.73;99.60
21276;BME280;36472;52.170;20.884;2023-01-28T11:52:47;101302.66;;;1.68;98.35
21276;BME280;36472;52.170;20.884;2023-01-28T11:55:47;101304.25;;;1.78;98.13
21276;BME280;36472;52.170;20.884;2023-01-28T11:59:49;101284.06;;;2.52;98.16
21276;BME280;36472;52.170;20.884;2023-01-28T12:02:46;101287.41;;;3.04;94.55
21276;BME280;36472;52.170;20.884;2023-01-28T12:05:34;101271.25;;;2.89;91.57
21276;BME280;36472;52.170;20.884;2023-01-28T12:08:18;101284.53;;;2.74;90.13
21276;BME280;36472;52.170;20.884;2023-01-28T12:11:17;101282.16;;;2.61;90.62
21276;BME280;36472;52.170;20.884;2023-01-28T12:14:22;101283.88;;;2.62;90.81
21276;BME280;36472;52.170;20.884;2023-01-28T12:17:15;101287.38;;;2.61;91.23
21276;BME280;36472;52.170;20.884;2023-01-28T12:20:05;101288.41;;;2.51;92.12
21276;BME280;36472;52.170;20.884;2023-01-28T12:23:03;101279.56;;;2.63;91.31
21276;BME280;36472;52.170;20.884;2023-01-28T12:25:48;101277.94;;;2.56;90.95
21276;BME280;36472;52.170;20.884;2023-01-28T12:28:36;101276.88;;;2.66;91.17
21276;BME280;36472;52.170;20.884;2023-01-28T12:31:37;101279.56;;;2.61;90.96
21276;BME280;36472;52.170;20.884;2023-01-28T12:35:00;101272.66;;;2.60;90.97
21276;BME280;36472;52.170;20.884;2023-01-28T12:37:51;101279.56;;;2.63;90.93
21276;BME280;36472;52.170;20.884;2023-01-28T12:40:46;101267.44;;;2.62;90.79
21276;BME280;36472;52.170;20.884;2023-01-28T12:43:25;101281.25;;;2.64;90.76
21276;BME280;36472;52.170;20.884;2023-01-28T12:46:01;101281.16;;;2.69;90.18
21276;BME280;36472;52.170;20.884;2023-01-28T12:48:38;101276.84;;;2.68;89.49
21276;BME280;36472;52.170;20.884;2023-01-28T12:51:14;101278.44;;;2.75;89.48
21276;BME280;36472;52.170;20.884;2023-01-28T12:53:51;101276.09;;;2.61;89.32
21276;BME280;36472;52.170;20.884;2023-01-28T12:56:29;101280.34;;;2.67;89.29
21276;BME280;36472;52.170;20.884;2023-01-28T12:59:09;101283.75;;;2.69;88.99
21276;BME280;36472;52.170;20.884;2023-01-28T13:01:46;101284.69;;;2.65;89.32
21276;BME280;36472;52.170;20.884;2023-01-28T13:04:31;101283.81;;;2.66;89.66
21276;BME280;36472;52.170;20.884;2023-01-28T13:07:13;101280.47;;;2.59;89.26
21276;BME280;36472;52.170;20.884;2023-01-28T13:09:51;101279.63;;;2.58;88.83
21276;BME280;36472;52.170;20.884;2023-01-28T13:12:21;101281.41;;;2.56;88.89
21276;BME280;36472;52.170;20.884;2023-01-28T13:14:52;101279.69;;;2.54;88.79
21276;BME280;36472;52.170;20.884;2023-01-28T13:17:29;101275.25;;;2.60;89.24
21276;BME280;36472;52.170;20.884;2023-01-28T13:19:59;101278.84;;;2.55;88.99
21276;BME280;36472;52.170;20.884;2023-01-28T13:22:32;101285.63;;;2.62;89.04
21276;BME280;36472;52.170;20.884;2023-01-28T13:25:24;101294.31;;;2.58;88.76
21276;BME280;36472;52.170;20.884;2023-01-28T13:27:58;101294.53;;;2.46;88.79
21276;BME280;36472;52.170;20.884;2023-01-28T13:30:30;101293.03;;;2.32;89.21
21276;BME280;36472;52.170;20.884;2023-01-28T13:33:01;101291.44;;;2.23;90.22
21276;BME280;36472;52.170;20.884;2023-01-28T13:35:35;101294.16;;;2.17;90.34
21276;BME280;36472;52.170;20.884;2023-01-28T13:38:16;101292.41;;;2.19;91.46
21276;BME280;36472;52.170;20.884;2023-01-28T13:40:54;101290.66;;;2.18;91.89
21276;BME280;36472;52.170;20.884;2023-01-28T13:43:33;101297.59;;;2.18;90.20
21276;BME280;36472;52.170;20.884;2023-01-28T13:46:08;101298.53;;;2.15;90.68
21276;BME280;36472;52.170;20.884;2023-01-28T13:48:45;101301.16;;;2.12;90.20